createdAt,value
2022-12-01T00:04:48.351Z,-0.50
2022-12-01T00:10:08.815Z,-0.50
2022-12-01T00:15:11.524Z,-0.40
2022-12-01T00:20:14.552Z,-0.40
2022-12-01T00:25:18.859Z,-0.40
2022-12-01T00:30:22.181Z,-0.50
2022-12-01T00:35:24.035Z,-0.40
2022-12-01T00:40:25.922Z,-0.40
2022-12-01T00:45:27.850Z,-0.40
2022-12-01T00:50:30.835Z,-0.30
2022-12-01T00:55:32.738Z,-0.30
2022-12-01T01:00:38.702Z,-0.30
2022-12-01T01:05:42.425Z,-0.30
2022-12-01T01:10:46.851Z,-0.30
2022-12-01T01:16:01.110Z,-0.20
2022-12-01T01:21:09.048Z,-0.20
2022-12-01T01:26:22.245Z,-0.20
2022-12-01T01:31:25.947Z,-0.20
2022-12-01T01:36:28.097Z,-0.20
2022-12-01T01:41:30.151Z,-0.10
2022-12-01T01:46:33.846Z,-0.10
2022-12-01T01:51:40.330Z,0.00
2022-12-01T01:56:44.225Z,-0.10
2022-12-01T02:01:50.604Z,0.00
2022-12-01T02:06:52.979Z,0.00
2022-12-01T02:12:12.446Z,0.00
2022-12-01T02:17:36.358Z,0.00
2022-12-01T02:23:19.702Z,0.00
2022-12-01T02:28:54.566Z,0.00
2022-12-01T02:34:05.616Z,0.10
2022-12-01T02:39:30.476Z,0.10
2022-12-01T02:44:39.169Z,0.10
2022-12-01T02:49:46.814Z,0.20
2022-12-01T02:54:48.815Z,0.20
2022-12-01T02:59:54.211Z,0.20
2022-12-01T03:05:06.839Z,0.20
2022-12-01T03:10:26.606Z,0.20
2022-12-01T03:15:56.788Z,0.20
2022-12-01T03:21:06.895Z,0.20
2022-12-01T03:26:16.362Z,0.20
2022-12-01T03:31:23.382Z,0.30
2022-12-01T03:36:35.732Z,0.30
2022-12-01T03:41:54.003Z,0.30
2022-12-01T03:47:07.542Z,0.30
2022-12-01T03:52:28.419Z,0.30
2022-12-01T03:57:35.974Z,0.30
2022-12-01T04:02:38.140Z,0.30
2022-12-01T04:07:40.925Z,0.40
2022-12-01T04:12:42.830Z,0.40
2022-12-01T04:17:45.130Z,0.40
2022-12-01T04:22:47.543Z,0.40
2022-12-01T04:27:49.405Z,0.40
2022-12-01T04:32:51.181Z,0.50
2022-12-01T04:37:52.969Z,0.50
2022-12-01T04:42:55.925Z,0.50
2022-12-01T04:47:57.770Z,0.50
2022-12-01T04:52:59.617Z,0.50
2022-12-01T04:58:02.898Z,0.60
2022-12-01T05:03:05.006Z,0.50
2022-12-01T05:08:06.876Z,0.50
2022-12-01T05:13:09.083Z,0.60
2022-12-01T05:18:10.912Z,0.60
2022-12-01T05:23:16.823Z,0.60
2022-12-01T05:28:19.895Z,0.60
2022-12-01T05:33:23.162Z,0.60
2022-12-01T05:38:24.981Z,0.60
2022-12-01T05:43:29.363Z,0.60
2022-12-01T05:48:31.481Z,0.60
2022-12-01T05:53:33.279Z,0.60
2022-12-01T05:58:35.803Z,0.60
2022-12-01T06:03:37.790Z,0.60
2022-12-01T06:08:39.613Z,0.60
2022-12-01T06:13:41.384Z,0.60
2022-12-01T06:18:43.149Z,0.60
2022-12-01T06:23:45.153Z,0.60
2022-12-01T06:28:47.062Z,0.60
2022-12-01T06:33:48.875Z,0.60
2022-12-01T06:38:50.687Z,0.60
2022-12-01T06:43:52.505Z,0.50
2022-12-01T06:48:54.782Z,0.50
2022-12-01T06:54:00.864Z,0.50
2022-12-01T06:59:07.952Z,0.50
2022-12-01T07:04:11.066Z,0.50
2022-12-01T07:09:13.457Z,0.50
2022-12-01T07:14:34.368Z,0.50
2022-12-01T07:19:37.168Z,0.60
2022-12-01T07:24:39.666Z,0.50
2022-12-01T07:29:41.931Z,0.50
2022-12-01T07:34:44.046Z,0.50
2022-12-01T07:39:45.900Z,0.50
2022-12-01T07:44:47.702Z,0.50
2022-12-01T07:49:49.763Z,0.50
2022-12-01T07:54:52.747Z,0.50
2022-12-01T07:59:54.558Z,0.50
2022-12-01T08:04:56.354Z,0.50
2022-12-01T08:09:58.336Z,0.50
2022-12-01T08:15:00.135Z,0.50
2022-12-01T08:20:01.951Z,0.50
2022-12-01T08:25:04.090Z,0.60
2022-12-01T08:30:06.781Z,0.60
2022-12-01T08:35:08.940Z,0.60
2022-12-01T08:40:11.158Z,0.60
2022-12-01T08:45:12.977Z,0.60
2022-12-01T08:50:14.826Z,0.70
2022-12-01T08:55:16.703Z,0.70
2022-12-01T09:00:18.721Z,0.70
2022-12-01T09:05:20.515Z,0.80
2022-12-01T09:10:22.374Z,0.70
2022-12-01T09:15:24.215Z,0.70
2022-12-01T09:20:26.083Z,0.80
2022-12-01T09:25:28.389Z,0.70
2022-12-01T09:30:30.210Z,0.70
2022-12-01T09:35:32.567Z,0.70
2022-12-01T09:40:38.286Z,0.70
2022-12-01T09:45:45.258Z,0.70
2022-12-01T09:50:47.112Z,0.70
2022-12-01T09:55:50.210Z,0.60
2022-12-01T10:00:54.196Z,0.70
2022-12-01T10:06:26.692Z,0.70
2022-12-01T10:11:35.567Z,0.60
2022-12-01T10:16:50.726Z,0.60
2022-12-01T10:22:14.870Z,0.70
2022-12-01T10:27:23.211Z,0.60
2022-12-01T10:33:01.816Z,0.60
2022-12-01T10:38:15.170Z,0.50
2022-12-01T10:43:16.949Z,0.60
2022-12-01T10:48:22.046Z,0.50
2022-12-01T10:53:23.804Z,0.50
2022-12-01T10:58:26.274Z,0.50
2022-12-01T11:03:31.986Z,0.50
2022-12-01T11:08:52.386Z,0.50
2022-12-01T11:13:56.111Z,0.50
2022-12-01T11:19:09.073Z,0.50
2022-12-01T11:24:33.625Z,0.60
2022-12-01T11:29:38.239Z,0.50
2022-12-01T11:34:40.282Z,0.50
2022-12-01T11:39:43.883Z,0.50
2022-12-01T11:44:54.362Z,0.50
2022-12-01T11:50:00.303Z,0.50
2022-12-01T11:55:11.457Z,0.40
2022-12-01T12:00:22.459Z,0.40
2022-12-01T12:05:52.788Z,0.40
2022-12-01T12:10:59.936Z,0.40
2022-12-01T12:16:30.276Z,0.50
2022-12-01T12:21:55.835Z,0.50
2022-12-01T12:27:06.166Z,0.50
2022-12-01T12:32:26.278Z,0.50
2022-12-01T12:37:42.457Z,0.50
2022-12-01T12:43:07.828Z,0.50
2022-12-01T12:49:03.998Z,0.50
2022-12-01T12:54:25.982Z,0.50
2022-12-01T12:59:46.505Z,0.50
2022-12-01T13:05:05.135Z,0.50
2022-12-01T13:10:22.786Z,0.40
2022-12-01T13:15:26.201Z,0.50
2022-12-01T13:20:29.785Z,0.40
2022-12-01T13:25:39.572Z,0.40
2022-12-01T13:30:41.488Z,0.40
2022-12-01T13:35:43.297Z,0.40
2022-12-01T13:40:45.888Z,0.40
2022-12-01T13:45:49.479Z,0.50
2022-12-01T13:50:59.157Z,0.50
2022-12-01T13:56:03.980Z,0.50
2022-12-01T14:01:42.193Z,0.50
2022-12-01T14:06:49.713Z,0.40
2022-12-01T14:12:03.990Z,0.50
2022-12-01T14:17:07.607Z,0.50
2022-12-01T14:22:31.865Z,0.40
2022-12-01T14:27:37.012Z,0.40
2022-12-01T14:32:38.810Z,0.40
2022-12-01T14:37:44.039Z,0.40
2022-12-01T14:43:09.585Z,0.40
2022-12-01T14:48:21.503Z,0.40
2022-12-01T14:53:30.666Z,0.40
2022-12-01T14:58:32.689Z,0.40
2022-12-01T15:03:51.404Z,0.40
2022-12-01T15:09:33.509Z,0.40
2022-12-01T15:14:49.758Z,0.40
2022-12-01T15:19:52.653Z,0.40
2022-12-01T15:25:05.633Z,0.40
2022-12-01T15:30:14.567Z,0.40
2022-12-01T15:35:21.350Z,0.40
2022-12-01T15:41:06.334Z,0.40
2022-12-01T15:46:19.722Z,0.40
2022-12-01T15:51:27.393Z,0.40
2022-12-01T15:56:39.215Z,0.40
2022-12-01T16:01:44.264Z,0.40
2022-12-01T16:07:01.002Z,0.40
2022-12-01T16:12:09.533Z,0.40
2022-12-01T16:17:12.049Z,0.30
2022-12-01T16:22:22.284Z,0.30
2022-12-01T16:27:27.647Z,0.30
2022-12-01T16:32:42.110Z,0.30
2022-12-01T16:37:48.285Z,0.30
2022-12-01T16:42:50.981Z,0.30
2022-12-01T16:47:54.300Z,0.30
2022-12-01T16:52:57.096Z,0.30
2022-12-01T16:58:02.884Z,0.30
2022-12-01T17:03:09.374Z,0.30
2022-12-01T17:08:14.526Z,0.30
2022-12-01T17:13:19.430Z,0.20
2022-12-01T17:18:24.806Z,0.30
2022-12-01T17:23:28.834Z,0.30
2022-12-01T17:28:31.933Z,0.30
2022-12-01T17:33:36.471Z,0.30
2022-12-01T17:38:42.037Z,0.20
2022-12-01T17:43:46.572Z,0.20
2022-12-01T17:48:49.148Z,0.20
2022-12-01T17:53:53.180Z,0.20
2022-12-01T17:58:56.407Z,0.20
2022-12-01T18:03:59.398Z,0.20
2022-12-01T18:09:02.317Z,0.20
2022-12-01T18:14:04.877Z,0.20
2022-12-01T18:19:07.684Z,0.20
2022-12-01T18:24:11.104Z,0.20
2022-12-01T18:29:16.777Z,0.20
2022-12-01T18:34:19.580Z,0.10
2022-12-01T18:39:22.674Z,0.10
2022-12-01T18:44:25.566Z,0.10
2022-12-01T18:49:28.801Z,0.10
2022-12-01T18:54:31.766Z,0.10
2022-12-01T18:59:34.756Z,0.10
2022-12-01T19:04:37.677Z,0.10
2022-12-01T19:09:40.771Z,0.10
2022-12-01T19:14:44.377Z,0.10
2022-12-01T19:19:48.121Z,0.10
2022-12-01T19:24:53.958Z,0.00
2022-12-01T19:29:58.529Z,0.10
2022-12-01T19:35:01.328Z,0.10
2022-12-01T19:40:09.145Z,0.00
2022-12-01T19:45:12.962Z,0.00
2022-12-01T19:50:19.326Z,0.00
2022-12-01T19:55:24.993Z,0.00
2022-12-01T20:00:29.429Z,0.00
2022-12-01T20:05:34.605Z,-0.10
2022-12-01T20:10:37.909Z,-0.10
2022-12-01T20:15:44.087Z,-0.10
2022-12-01T20:20:51.799Z,-0.10
2022-12-01T20:26:06.042Z,-0.10
2022-12-01T20:31:15.961Z,-0.10
2022-12-01T20:36:25.360Z,-0.20
2022-12-01T20:41:36.260Z,-0.10
2022-12-01T20:46:46.646Z,-0.20
2022-12-01T20:51:54.563Z,-0.20
2022-12-01T20:56:58.381Z,-0.20
2022-12-01T21:02:01.655Z,-0.20
2022-12-01T21:07:08.999Z,-0.20
2022-12-01T21:12:35.950Z,-0.20
2022-12-01T21:17:51.026Z,-0.20
2022-12-01T21:22:55.372Z,-0.20
2022-12-01T21:28:17.942Z,-0.30
2022-12-01T21:33:39.252Z,-0.20
2022-12-01T21:38:44.129Z,-0.30
2022-12-01T21:43:50.785Z,-0.30
2022-12-01T21:48:54.885Z,-0.30
2022-12-01T21:53:57.479Z,-0.30
2022-12-01T21:59:20.296Z,-0.30
2022-12-01T22:04:34.909Z,-0.30
2022-12-01T22:09:38.902Z,-0.30
2022-12-01T22:14:41.741Z,-0.30
2022-12-01T22:20:00.508Z,-0.30
2022-12-01T22:25:26.634Z,-0.30
2022-12-01T22:30:29.452Z,-0.40
2022-12-01T22:35:44.492Z,-0.40
2022-12-01T22:41:02.793Z,-0.50
2022-12-01T22:46:11.949Z,-0.40
2022-12-01T22:51:27.329Z,-0.50
2022-12-01T22:56:54.512Z,-0.50
2022-12-01T23:01:59.774Z,-0.50
2022-12-01T23:07:13.916Z,-0.50
2022-12-01T23:12:29.916Z,-0.50
2022-12-01T23:17:36.285Z,-0.50
2022-12-01T23:22:40.267Z,-0.50
2022-12-01T23:27:44.882Z,-0.60
2022-12-01T23:32:59.203Z,-0.60
2022-12-01T23:38:01.045Z,-0.60
2022-12-01T23:43:20.890Z,-0.70
2022-12-01T23:48:30.492Z,-0.70
2022-12-01T23:53:33.325Z,-0.70
2022-12-01T23:58:35.203Z,-0.70
